createdAt,value
2023-02-22T00:01:33.337Z,11.23
2023-02-22T00:03:59.802Z,11.55
2023-02-22T00:06:26.203Z,14.85
2023-02-22T00:08:53.040Z,13.30
2023-02-22T00:11:20.544Z,14.90
2023-02-22T00:13:47.500Z,15.25
2023-02-22T00:16:19.129Z,15.00
2023-02-22T00:18:46.036Z,15.43
2023-02-22T00:21:14.735Z,18.42
2023-02-22T00:23:46.454Z,17.13
2023-02-22T00:26:18.326Z,18.92
2023-02-22T00:28:51.180Z,19.95
2023-02-22T00:31:18.929Z,19.45
2023-02-22T00:33:45.851Z,20.83
2023-02-22T00:36:13.858Z,21.58
2023-02-22T00:38:41.660Z,21.42
2023-02-22T00:41:09.276Z,21.90
2023-02-22T00:43:36.036Z,24.90
2023-02-22T00:46:02.628Z,24.15
2023-02-22T00:48:29.336Z,24.95
2023-02-22T00:50:55.987Z,25.40
2023-02-22T00:53:25.051Z,25.23
2023-02-22T00:55:52.037Z,21.88
2023-02-22T00:58:18.636Z,25.50
2023-02-22T01:00:45.635Z,25.77
2023-02-22T01:03:14.809Z,28.30
2023-02-22T01:05:41.400Z,25.60
2023-02-22T01:08:10.248Z,27.85
2023-02-22T01:10:38.406Z,26.60
2023-02-22T01:13:08.500Z,25.60
2023-02-22T01:15:36.868Z,25.08
2023-02-22T01:18:05.101Z,26.27
2023-02-22T01:20:32.411Z,24.27
2023-02-22T01:23:00.768Z,25.70
2023-02-22T01:25:29.571Z,26.02
2023-02-22T01:27:57.222Z,26.75
2023-02-22T01:30:27.591Z,25.42
2023-02-22T01:32:54.655Z,26.63
2023-02-22T01:35:27.665Z,25.40
2023-02-22T01:40:26.072Z,22.50
2023-02-22T01:42:57.618Z,23.65
2023-02-22T01:45:38.730Z,23.35
2023-02-22T01:48:09.444Z,23.65
2023-02-22T01:50:40.867Z,22.55
2023-02-22T01:53:09.636Z,24.27
2023-02-22T01:55:36.280Z,23.73
2023-02-22T01:58:05.036Z,24.63
2023-02-22T02:00:32.199Z,24.08
2023-02-22T02:03:04.531Z,22.70
2023-02-22T02:05:34.186Z,23.20
2023-02-22T02:08:09.624Z,23.50
2023-02-22T02:10:37.149Z,24.52
2023-02-22T02:13:03.989Z,22.92
2023-02-22T02:15:33.606Z,23.20
2023-02-22T02:18:03.768Z,23.25
2023-02-22T02:20:50.979Z,22.98
2023-02-22T02:23:30.698Z,19.25
2023-02-22T02:26:21.884Z,21.33
2023-02-22T02:29:09.726Z,21.17
2023-02-22T02:32:01.206Z,22.33
2023-02-22T02:34:30.495Z,21.70
2023-02-22T02:37:12.470Z,21.00
2023-02-22T02:39:56.976Z,19.88
2023-02-22T02:42:29.807Z,21.65
2023-02-22T02:45:13.443Z,22.15
2023-02-22T02:47:48.775Z,19.90
2023-02-22T02:50:30.642Z,23.17
2023-02-22T02:53:01.132Z,22.30
2023-02-22T02:55:30.338Z,20.92
2023-02-22T02:57:56.876Z,21.52
2023-02-22T03:00:28.107Z,22.52
2023-02-22T03:03:00.507Z,23.08
2023-02-22T03:06:19.871Z,23.95
2023-02-22T03:09:04.658Z,20.05
2023-02-22T03:12:07.776Z,21.38
2023-02-22T03:14:53.412Z,23.50
2023-02-22T03:17:32.364Z,21.58
2023-02-22T03:20:04.957Z,18.90
2023-02-22T03:22:37.678Z,20.65
2023-02-22T03:25:10.882Z,18.92
2023-02-22T03:27:46.374Z,20.50
2023-02-22T03:30:24.085Z,21.35
2023-02-22T03:32:56.429Z,20.73
2023-02-22T03:35:28.287Z,22.13
2023-02-22T03:37:58.360Z,23.60
2023-02-22T03:40:33.150Z,22.02
2023-02-22T03:43:06.388Z,22.75
2023-02-22T03:45:34.694Z,22.85
2023-02-22T03:48:17.593Z,20.75
2023-02-22T03:50:44.308Z,22.33
2023-02-22T03:53:11.066Z,22.08
2023-02-22T03:55:37.601Z,23.67
2023-02-22T03:58:08.565Z,22.33
2023-02-22T04:00:35.651Z,23.50
2023-02-22T04:03:02.825Z,22.40
2023-02-22T04:05:29.309Z,21.65
2023-02-22T04:07:57.030Z,21.08
2023-02-22T04:10:24.631Z,19.80
2023-02-22T04:12:51.269Z,21.52
2023-02-22T04:15:21.835Z,22.20
2023-02-22T04:17:48.295Z,21.60
2023-02-22T04:20:19.737Z,21.45
2023-02-22T04:22:47.321Z,22.20
2023-02-22T04:25:14.481Z,21.58
2023-02-22T04:27:40.862Z,21.35
2023-02-22T04:30:07.791Z,21.42
2023-02-22T04:32:34.637Z,20.05
2023-02-22T04:35:01.144Z,20.67
2023-02-22T04:37:27.544Z,19.48
2023-02-22T04:39:54.001Z,21.52
2023-02-22T04:42:20.491Z,21.40
2023-02-22T04:44:46.958Z,22.00
2023-02-22T04:47:13.355Z,21.73
2023-02-22T04:49:39.752Z,21.55
2023-02-22T04:52:06.164Z,21.35
2023-02-22T04:54:32.588Z,20.52
2023-02-22T04:56:59.052Z,20.40
2023-02-22T04:59:25.624Z,21.48
2023-02-22T05:01:52.126Z,21.50
2023-02-22T05:04:18.673Z,21.90
2023-02-22T05:06:45.169Z,21.90
2023-02-22T05:12:58.726Z,20.77
2023-02-22T05:15:25.615Z,20.80
2023-02-22T05:17:53.159Z,20.10
2023-02-22T05:20:32.004Z,21.42
2023-02-22T05:23:00.330Z,17.55
2023-02-22T05:25:28.158Z,21.38
2023-02-22T05:28:00.547Z,18.77
2023-02-22T05:30:32.676Z,17.63
2023-02-22T05:32:59.947Z,21.03
2023-02-22T05:35:28.914Z,16.95
2023-02-22T05:37:56.146Z,19.08
2023-02-22T05:40:25.270Z,17.40
2023-02-22T05:42:52.586Z,18.10
2023-02-22T05:45:20.892Z,17.63
2023-02-22T05:47:48.077Z,16.50
2023-02-22T05:50:15.586Z,20.73
2023-02-22T05:52:42.602Z,17.42
2023-02-22T05:55:10.659Z,17.45
2023-02-22T05:57:37.132Z,19.75
2023-02-22T06:00:08.166Z,17.90
2023-02-22T06:02:34.734Z,17.75
2023-02-22T06:05:01.290Z,19.27
2023-02-22T06:07:27.775Z,15.30
2023-02-22T06:09:54.383Z,17.13
2023-02-22T06:12:20.875Z,17.77
2023-02-22T06:14:47.378Z,18.55
2023-02-22T06:17:15.352Z,18.40
2023-02-22T06:19:41.832Z,17.50
2023-02-22T06:22:08.589Z,19.83
2023-02-22T06:24:38.661Z,17.60
2023-02-22T06:27:05.184Z,18.60
2023-02-22T06:29:31.627Z,18.90
2023-02-22T06:31:58.246Z,18.02
2023-02-22T06:34:24.884Z,18.73
2023-02-22T06:36:51.478Z,18.20
2023-02-22T06:39:18.854Z,17.42
2023-02-22T06:41:47.029Z,14.82
2023-02-22T06:44:15.209Z,14.15
2023-02-22T06:46:48.140Z,15.23
2023-02-22T06:49:14.716Z,15.95
2023-02-22T06:51:41.347Z,16.40
2023-02-22T06:54:07.934Z,17.98
2023-02-22T06:56:34.429Z,16.20
2023-02-22T06:59:02.835Z,17.88
2023-02-22T07:01:29.806Z,16.48
2023-02-22T07:03:56.611Z,15.98
2023-02-22T07:06:23.276Z,20.55
2023-02-22T07:08:49.886Z,14.73
2023-02-22T07:11:18.095Z,16.02
2023-02-22T07:13:46.538Z,17.70
2023-02-22T07:16:13.228Z,14.90
2023-02-22T07:18:39.751Z,14.27
2023-02-22T07:21:06.282Z,15.20
2023-02-22T07:23:32.967Z,14.18
2023-02-22T07:26:03.798Z,16.25
2023-02-22T07:28:30.369Z,15.05
2023-02-22T07:30:56.874Z,14.98
2023-02-22T07:33:23.404Z,16.02
2023-02-22T07:35:50.866Z,17.70
2023-02-22T07:38:19.473Z,14.77
2023-02-22T07:40:46.722Z,16.42
2023-02-22T07:43:16.295Z,14.90
2023-02-22T07:45:43.168Z,14.02
2023-02-22T07:48:10.570Z,14.95
2023-02-22T07:50:37.076Z,14.63
2023-02-22T07:53:06.215Z,15.48
2023-02-22T07:55:34.534Z,14.85
2023-02-22T07:58:04.817Z,14.00
2023-02-22T08:00:34.286Z,14.43
2023-02-22T08:03:02.500Z,13.93
2023-02-22T08:05:30.376Z,14.80
2023-02-22T08:07:56.981Z,13.40
2023-02-22T08:10:24.970Z,14.52
2023-02-22T08:12:52.821Z,14.35
2023-02-22T08:15:24.273Z,15.02
2023-02-22T08:17:51.540Z,14.25
2023-02-22T08:20:18.184Z,13.20
2023-02-22T08:22:45.291Z,15.93
2023-02-22T08:25:13.069Z,15.40
2023-02-22T08:27:39.598Z,15.05
2023-02-22T08:30:07.717Z,16.63
2023-02-22T08:32:35.718Z,16.98
2023-02-22T08:35:02.832Z,15.35
2023-02-22T08:37:29.339Z,16.05
2023-02-22T08:39:56.170Z,16.20
2023-02-22T08:42:22.760Z,16.23
2023-02-22T08:44:49.416Z,17.27
2023-02-22T08:47:15.924Z,16.88
2023-02-22T08:49:42.481Z,17.42
2023-02-22T08:52:09.318Z,16.70
2023-02-22T08:54:35.852Z,17.17
2023-02-22T08:57:02.423Z,17.98
2023-02-22T08:59:29.153Z,16.50
2023-02-22T09:01:55.680Z,17.80
2023-02-22T09:04:22.284Z,16.95
2023-02-22T09:06:51.734Z,16.48
2023-02-22T09:09:21.352Z,16.45
2023-02-22T09:11:48.660Z,16.95
2023-02-22T09:14:16.530Z,17.02
2023-02-22T09:16:45.452Z,17.00
2023-02-22T09:19:12.395Z,15.88
2023-02-22T09:21:40.415Z,15.90
2023-02-22T09:24:10.728Z,16.00
2023-02-22T09:26:39.508Z,15.52
2023-02-22T09:29:12.086Z,15.93
2023-02-22T09:31:40.505Z,16.02
2023-02-22T09:34:17.186Z,16.13
2023-02-22T09:36:46.167Z,16.48
2023-02-22T09:39:15.304Z,18.30
2023-02-22T09:41:44.365Z,17.23
2023-02-22T09:44:19.859Z,16.83
2023-02-22T09:46:48.489Z,17.67
2023-02-22T09:49:25.105Z,16.80
2023-02-22T09:52:16.925Z,17.42
2023-02-22T09:54:51.929Z,15.35
2023-02-22T09:57:28.582Z,16.23
2023-02-22T10:00:14.651Z,16.65
2023-02-22T10:02:54.332Z,17.13
2023-02-22T10:05:29.695Z,16.08
2023-02-22T10:08:05.808Z,17.60
2023-02-22T10:10:37.062Z,17.70
2023-02-22T10:13:22.454Z,17.38
2023-02-22T10:16:20.996Z,17.48
2023-02-22T10:19:11.717Z,16.67
2023-02-22T10:21:47.516Z,17.35
2023-02-22T10:24:38.474Z,18.60
2023-02-22T10:27:19.034Z,17.60
2023-02-22T10:29:59.389Z,19.20
2023-02-22T10:32:35.588Z,18.45
2023-02-22T10:35:05.507Z,18.00
2023-02-22T10:37:34.322Z,18.10
2023-02-22T10:40:17.284Z,17.20
2023-02-22T10:42:44.258Z,16.02
2023-02-22T10:45:34.679Z,18.45
2023-02-22T10:48:08.543Z,19.50
2023-02-22T10:50:38.160Z,17.60
2023-02-22T10:53:04.658Z,19.38
2023-02-22T10:55:31.425Z,18.65
2023-02-22T10:58:04.826Z,17.15
2023-02-22T11:00:37.254Z,17.60
2023-02-22T11:03:17.664Z,16.88
2023-02-22T11:05:44.870Z,17.48
2023-02-22T11:08:29.293Z,18.42
2023-02-22T11:14:42.751Z,17.48
2023-02-22T11:17:14.539Z,17.38
2023-02-22T11:19:47.733Z,16.58
2023-02-22T11:22:22.502Z,17.25
2023-02-22T11:24:57.923Z,16.15
2023-02-22T11:27:38.073Z,16.85
2023-02-22T11:30:18.457Z,16.80
2023-02-22T11:32:47.712Z,15.80
2023-02-22T11:35:50.561Z,16.38
2023-02-22T11:38:24.961Z,15.83
2023-02-22T11:41:16.747Z,16.08
2023-02-22T11:43:45.788Z,16.52
2023-02-22T11:46:30.225Z,16.15
2023-02-22T11:49:10.686Z,15.93
2023-02-22T11:51:49.612Z,15.90
2023-02-22T11:54:32.867Z,16.13
2023-02-22T11:59:55.838Z,14.52
2023-02-22T12:02:37.415Z,14.93
2023-02-22T12:05:08.311Z,15.90
2023-02-22T12:08:19.394Z,16.33
2023-02-22T12:11:03.990Z,15.27
2023-02-22T12:13:42.083Z,15.10
2023-02-22T12:16:17.898Z,15.73
2023-02-22T12:19:03.339Z,14.07
2023-02-22T12:21:32.070Z,13.70
2023-02-22T12:24:14.481Z,13.82
2023-02-22T12:26:44.087Z,13.63
2023-02-22T12:29:37.614Z,13.45
2023-02-22T12:32:14.255Z,14.23
2023-02-22T12:34:45.602Z,13.05
2023-02-22T12:37:29.246Z,13.55
2023-02-22T12:39:55.713Z,13.02
2023-02-22T12:42:55.930Z,12.10
2023-02-22T12:45:37.003Z,12.25
2023-02-22T12:48:40.149Z,12.43
2023-02-22T12:51:21.602Z,11.55
2023-02-22T12:54:06.558Z,11.75
2023-02-22T12:56:49.484Z,12.02
2023-02-22T12:59:27.354Z,12.30
2023-02-22T13:01:59.603Z,11.00
2023-02-22T13:04:26.542Z,12.00
2023-02-22T13:06:57.715Z,11.82
2023-02-22T13:09:48.676Z,10.95
2023-02-22T13:12:36.282Z,11.65
2023-02-22T13:15:17.916Z,11.00
2023-02-22T13:17:52.366Z,11.43
2023-02-22T13:20:29.988Z,12.60
2023-02-22T13:23:38.908Z,12.05
2023-02-22T13:26:30.395Z,11.00
2023-02-22T13:29:10.716Z,11.27
2023-02-22T13:32:12.764Z,12.43
2023-02-22T13:34:59.988Z,11.65
2023-02-22T13:37:58.370Z,11.93
2023-02-22T13:40:44.634Z,12.48
2023-02-22T13:43:42.221Z,11.85
2023-02-22T13:46:22.410Z,11.35
2023-02-22T13:48:57.746Z,11.05
2023-02-22T13:51:51.561Z,11.07
2023-02-22T13:54:24.898Z,12.48
2023-02-22T13:56:53.646Z,12.20
2023-02-22T13:59:36.060Z,11.98
2023-02-22T14:03:09.526Z,10.73
2023-02-22T14:05:42.470Z,11.63
2023-02-22T14:08:38.557Z,11.43
2023-02-22T14:11:33.601Z,11.88
2023-02-22T14:14:02.768Z,11.43
2023-02-22T14:16:34.021Z,11.73
2023-02-22T14:19:09.702Z,11.65
2023-02-22T14:21:36.527Z,12.20
2023-02-22T14:24:12.670Z,11.80
2023-02-22T14:26:40.772Z,11.50
2023-02-22T14:29:07.877Z,12.63
2023-02-22T14:31:43.563Z,12.07
2023-02-22T14:34:22.600Z,10.75
2023-02-22T14:36:50.888Z,10.80
2023-02-22T14:39:39.833Z,11.18
2023-02-22T14:42:14.521Z,11.50
2023-02-22T14:45:03.020Z,11.18
2023-02-22T14:48:01.002Z,11.15
2023-02-22T14:50:41.609Z,11.02
2023-02-22T14:53:22.127Z,11.77
2023-02-22T14:56:06.960Z,11.07
2023-02-22T14:58:56.418Z,10.55
2023-02-22T15:04:28.420Z,10.38
2023-02-22T15:09:34.656Z,10.57
2023-02-22T15:12:04.357Z,10.15
2023-02-22T15:14:37.571Z,10.68
2023-02-22T15:17:27.639Z,11.27
2023-02-22T15:19:55.089Z,11.60
2023-02-22T15:22:27.476Z,11.27
2023-02-22T15:24:58.851Z,10.50
2023-02-22T15:27:26.211Z,10.88
2023-02-22T15:29:59.534Z,10.60
2023-02-22T15:32:32.319Z,9.98
2023-02-22T15:35:25.872Z,10.38
2023-02-22T15:40:33.025Z,8.88
2023-02-22T15:43:08.921Z,10.07
2023-02-22T15:45:42.935Z,10.00
2023-02-22T15:48:14.595Z,10.00
2023-02-22T15:51:09.298Z,11.02
2023-02-22T15:53:41.254Z,10.50
2023-02-22T15:56:17.978Z,11.15
2023-02-22T15:58:46.887Z,10.82
2023-02-22T16:01:22.307Z,11.20
2023-02-22T16:03:53.065Z,11.05
2023-02-22T16:06:36.005Z,10.82
2023-02-22T16:09:25.485Z,11.27
2023-02-22T16:12:09.452Z,11.30
2023-02-22T16:14:35.962Z,10.68
2023-02-22T16:17:25.425Z,11.18
2023-02-22T16:19:53.124Z,10.60
2023-02-22T16:22:39.038Z,11.52
2023-02-22T16:25:17.879Z,10.90
2023-02-22T16:27:50.268Z,10.75
2023-02-22T16:30:24.459Z,11.02
2023-02-22T16:32:54.918Z,10.60
2023-02-22T16:35:27.956Z,10.95
2023-02-22T16:40:38.705Z,9.68
2023-02-22T16:43:12.534Z,10.70
2023-02-22T16:45:41.984Z,10.95
2023-02-22T16:48:16.947Z,11.70
2023-02-22T16:50:43.446Z,10.68
2023-02-22T16:53:10.167Z,11.55
2023-02-22T16:55:36.734Z,11.93
2023-02-22T16:58:04.816Z,10.57
2023-02-22T17:00:31.678Z,11.25
2023-02-22T17:02:59.529Z,11.20
2023-02-22T17:05:26.072Z,10.90
2023-02-22T17:07:52.782Z,11.55
2023-02-22T17:12:58.369Z,10.98
2023-02-22T17:15:35.672Z,10.73
2023-02-22T17:18:11.183Z,11.68
2023-02-22T17:20:37.617Z,11.55
2023-02-22T17:23:09.134Z,11.32
2023-02-22T17:25:44.844Z,11.88
2023-02-22T17:28:12.809Z,11.73
2023-02-22T17:30:39.939Z,12.13
2023-02-22T17:33:09.011Z,12.73
2023-02-22T17:35:38.306Z,13.25
2023-02-22T17:38:06.660Z,12.65
2023-02-22T17:40:35.316Z,11.80
2023-02-22T17:43:02.406Z,12.02
2023-02-22T17:45:29.525Z,12.65
2023-02-22T17:47:59.192Z,12.25
2023-02-22T17:50:27.355Z,12.30
2023-02-22T17:52:54.087Z,12.88
2023-02-22T17:55:22.401Z,12.70
2023-02-22T17:57:58.187Z,13.15
2023-02-22T18:00:34.024Z,11.90
2023-02-22T18:03:02.916Z,11.88
2023-02-22T18:05:35.178Z,12.48
2023-02-22T18:08:01.705Z,11.97
2023-02-22T18:10:28.202Z,11.77
2023-02-22T18:12:56.803Z,12.52
2023-02-22T18:15:23.446Z,13.90
2023-02-22T18:17:50.329Z,13.60
2023-02-22T18:20:30.907Z,12.35
2023-02-22T18:22:59.444Z,13.13
2023-02-22T18:25:27.095Z,13.30
2023-02-22T18:27:55.039Z,12.48
2023-02-22T18:30:21.982Z,13.43
2023-02-22T18:32:49.157Z,13.13
2023-02-22T18:35:15.718Z,12.75
2023-02-22T18:37:42.572Z,11.32
2023-02-22T18:40:10.625Z,12.65
2023-02-22T18:42:39.121Z,12.27
2023-02-22T18:45:07.422Z,12.32
2023-02-22T18:47:44.043Z,12.52
2023-02-22T18:50:11.592Z,13.35
2023-02-22T18:52:44.887Z,13.02
2023-02-22T18:55:13.560Z,13.48
2023-02-22T18:57:40.396Z,13.00
2023-02-22T19:00:09.113Z,12.73
2023-02-22T19:02:35.676Z,12.07
2023-02-22T19:05:03.793Z,11.65
2023-02-22T19:07:30.270Z,12.55
2023-02-22T19:09:56.806Z,12.35
2023-02-22T19:12:24.476Z,12.27
2023-02-22T19:14:53.613Z,11.95
2023-02-22T19:17:21.466Z,12.23
2023-02-22T19:19:48.553Z,11.60
2023-02-22T19:22:15.219Z,13.25
2023-02-22T19:24:45.351Z,12.55
2023-02-22T19:27:13.667Z,12.43
2023-02-22T19:29:40.661Z,13.20
2023-02-22T19:32:08.946Z,13.43
2023-02-22T19:34:37.062Z,13.20
2023-02-22T19:37:05.358Z,13.45
2023-02-22T19:39:33.536Z,12.98
2023-02-22T19:42:00.449Z,13.95
2023-02-22T19:44:28.140Z,13.02
2023-02-22T19:46:57.589Z,13.70
2023-02-22T19:51:54.173Z,13.48
2023-02-22T19:54:22.089Z,13.43
2023-02-22T19:56:51.659Z,13.60
2023-02-22T19:59:22.847Z,14.10
2023-02-22T20:01:52.638Z,14.52
2023-02-22T20:04:21.520Z,13.75
2023-02-22T20:06:54.581Z,14.27
2023-02-22T20:09:24.674Z,13.93
2023-02-22T20:11:53.994Z,14.68
2023-02-22T20:14:23.951Z,15.52
2023-02-22T20:16:51.717Z,14.65
2023-02-22T20:19:18.367Z,14.93
2023-02-22T20:21:45.108Z,14.82
2023-02-22T20:24:15.023Z,15.27
2023-02-22T20:26:42.426Z,14.07
2023-02-22T20:29:10.137Z,14.68
2023-02-22T20:31:38.394Z,15.90
2023-02-22T20:34:09.746Z,14.68
2023-02-22T20:36:38.515Z,15.50
2023-02-22T20:39:13.250Z,16.08
2023-02-22T20:41:42.499Z,15.50
2023-02-22T20:44:13.537Z,16.60
2023-02-22T20:46:40.146Z,16.25
2023-02-22T20:49:08.944Z,16.42
2023-02-22T20:51:35.685Z,17.15
2023-02-22T20:54:03.062Z,17.88
2023-02-22T20:56:31.378Z,16.92
2023-02-22T20:59:00.872Z,17.70
2023-02-22T21:01:28.020Z,18.52
2023-02-22T21:03:54.776Z,17.60
2023-02-22T21:06:22.161Z,18.35
2023-02-22T21:08:54.348Z,19.00
2023-02-22T21:11:22.580Z,18.33
2023-02-22T21:13:49.362Z,18.15
2023-02-22T21:16:22.608Z,19.92
2023-02-22T21:18:54.026Z,19.35
2023-02-22T21:21:21.398Z,19.73
2023-02-22T21:23:50.420Z,20.83
2023-02-22T21:26:19.408Z,20.58
2023-02-22T21:28:51.432Z,20.95
2023-02-22T21:31:20.294Z,19.92
2023-02-22T21:33:53.019Z,20.30
2023-02-22T21:36:20.646Z,21.60
2023-02-22T21:38:53.227Z,21.73
2023-02-22T21:41:21.595Z,21.85
2023-02-22T21:43:51.866Z,21.88
2023-02-22T21:46:19.183Z,21.63
2023-02-22T21:48:48.894Z,22.40
2023-02-22T21:51:21.178Z,21.80
2023-02-22T21:53:51.986Z,16.02
2023-02-22T21:56:23.626Z,21.85
2023-02-22T21:59:02.853Z,24.13
2023-02-22T22:01:34.523Z,22.00
2023-02-22T22:04:02.672Z,24.52
2023-02-22T22:06:30.943Z,24.65
2023-02-22T22:08:59.953Z,24.20
2023-02-22T22:11:26.806Z,24.20
2023-02-22T22:13:57.701Z,25.58
2023-02-22T22:16:27.171Z,25.38
2023-02-22T22:18:55.126Z,25.77
2023-02-22T22:21:23.896Z,27.35
2023-02-22T22:23:54.453Z,25.83
2023-02-22T22:26:24.422Z,27.10
2023-02-22T22:28:54.018Z,27.00
2023-02-22T22:31:23.477Z,27.52
2023-02-22T22:33:50.366Z,27.70
2023-02-22T22:36:19.050Z,27.63
2023-02-22T22:38:48.684Z,28.23
2023-02-22T22:41:17.980Z,28.00
2023-02-22T22:43:46.071Z,29.05
2023-02-22T22:46:14.763Z,29.98
2023-02-22T22:48:41.283Z,30.20
2023-02-22T22:51:14.473Z,28.67
2023-02-22T22:53:44.000Z,28.70
2023-02-22T22:56:19.177Z,29.00
2023-02-22T22:58:51.452Z,28.73
2023-02-22T23:01:26.771Z,29.73
2023-02-22T23:04:01.570Z,30.80
2023-02-22T23:06:34.174Z,29.95
2023-02-22T23:09:13.085Z,30.60
2023-02-22T23:14:20.770Z,29.52
2023-02-22T23:16:53.567Z,32.10
2023-02-22T23:19:20.308Z,29.98
2023-02-22T23:21:48.756Z,29.55
2023-02-22T23:24:18.865Z,29.45
2023-02-22T23:26:48.794Z,29.73
2023-02-22T23:29:21.030Z,32.17
2023-02-22T23:31:49.426Z,30.43
2023-02-22T23:34:23.002Z,31.65
2023-02-22T23:36:54.205Z,31.75
2023-02-22T23:39:22.277Z,31.42
2023-02-22T23:41:53.694Z,31.48
2023-02-22T23:44:21.529Z,30.80
2023-02-22T23:46:49.697Z,30.17
2023-02-22T23:49:20.458Z,31.42
2023-02-22T23:51:47.963Z,30.08
2023-02-22T23:54:16.810Z,30.17
2023-02-22T23:56:47.290Z,30.42
2023-02-22T23:59:14.541Z,31.70
